Time;durP1;ratioP1;P1;durP2;ratioP2;P2;SDS_P1;SDS_P2;PMS_P1;PMS_P2;Temp;Humidity;BMP_temperature;BMP_pressure;BME280_temperature;BME280_humidity;BME280_pressure;Samples;Min_cycle;Max_cycle;Signal;HPM_P1;HPM_P2
2023/03/25 00:01:12;;;;;;;10.78;4.47;;;;;;;10.10;71.91;101424.55;1839250;77;21086;-44
2023/03/25 00:03:45;;;;;;;7.35;3.55;;;;;;;10.12;71.60;101414.39;1829906;77;21119;-44
2023/03/25 00:06:13;;;;;;;8.03;4.00;;;;;;;10.15;71.60;101418.72;1860051;77;21539;-44
2023/03/25 00:08:42;;;;;;;10.65;3.98;;;;;;;10.13;71.90;101412.18;1860507;77;21433;-43
2023/03/25 00:11:11;;;;;;;9.88;4.35;;;;;;;10.11;71.92;101417.94;1857863;77;21141;-43
2023/03/25 00:13:40;;;;;;;8.30;3.85;;;;;;;10.10;71.80;101416.66;1856950;77;21074;-44
2023/03/25 00:16:10;;;;;;;15.15;4.97;;;;;;;10.12;71.68;101411.75;1844695;77;21085;-44
2023/03/25 00:18:38;;;;;;;12.45;4.25;;;;;;;10.15;71.54;101413.46;1858900;77;21133;-43
2023/03/25 00:21:11;;;;;;;12.95;4.85;;;;;;;10.16;71.53;101409.91;1858080;77;21046;-44
2023/03/25 00:23:41;;;;;;;12.98;5.05;;;;;;;10.19;71.35;101412.47;1860705;77;21571;-43
2023/03/25 00:26:10;;;;;;;10.53;4.97;;;;;;;10.20;71.37;101408.95;1860529;77;21543;-41
2023/03/25 00:28:39;;;;;;;9.00;4.15;;;;;;;10.19;71.33;101412.47;1860824;77;21074;-41
2023/03/25 00:31:10;;;;;;;18.20;4.10;;;;;;;10.18;71.36;101411.61;1858461;77;21471;-41
2023/03/25 00:33:42;;;;;;;22.25;5.10;;;;;;;10.16;71.46;101408.59;1858506;77;21547;-41
2023/03/25 00:36:13;;;;;;;9.95;4.47;;;;;;;10.15;71.48;101402.47;1860016;77;21070;-42
2023/03/25 00:38:42;;;;;;;8.88;4.25;;;;;;;10.18;71.42;101398.45;1860588;77;21054;-42
2023/03/25 00:41:16;;;;;;;8.53;4.87;;;;;;;10.14;71.61;101393.30;1860655;77;21086;-42
2023/03/25 00:43:46;;;;;;;8.73;4.15;;;;;;;10.10;72.00;101394.30;1859486;77;21034;-43
2023/03/25 00:46:15;;;;;;;9.65;4.45;;;;;;;10.07;72.03;101389.09;1846979;77;21528;-43
2023/03/25 00:48:43;;;;;;;11.75;4.20;;;;;;;10.04;72.20;101383.48;1832420;77;21637;-42
2023/03/25 00:51:13;;;;;;;11.38;4.75;;;;;;;10.02;72.23;101382.20;1829414;77;21145;-42
2023/03/25 00:53:42;;;;;;;9.03;4.17;;;;;;;10.01;72.30;101385.75;1829937;77;21512;-43
2023/03/25 00:56:14;;;;;;;10.18;3.85;;;;;;;10.00;72.17;101374.80;1829790;77;21046;-42
2023/03/25 00:58:42;;;;;;;10.03;4.50;;;;;;;10.00;72.34;101380.06;1839149;77;21026;-41
2023/03/25 01:01:14;;;;;;;16.17;4.33;;;;;;;9.99;72.31;101368.27;1846194;77;21035;-40
2023/03/25 01:03:44;;;;;;;16.17;4.50;;;;;;;9.99;72.35;101370.89;1829668;77;21095;-41
2023/03/25 01:06:16;;;;;;;8.80;4.12;;;;;;;9.98;72.36;101367.41;1829568;78;21139;-41
2023/03/25 01:08:46;;;;;;;10.32;3.83;;;;;;;9.99;72.20;101374.38;1841394;77;21007;-42
2023/03/25 01:11:20;;;;;;;13.38;4.03;;;;;;;10.00;72.15;101376.12;1837809;77;21482;-40
2023/03/25 01:13:50;;;;;;;12.40;4.45;;;;;;;9.99;72.15;101373.06;1860460;77;21131;-44
2023/03/25 01:16:19;;;;;;;12.63;3.92;;;;;;;9.98;72.19;101368.72;1860596;77;21098;-41
2023/03/25 01:18:48;;;;;;;12.58;4.45;;;;;;;9.98;72.17;101373.98;1860546;77;21050;-41
2023/03/25 01:21:17;;;;;;;8.98;4.62;;;;;;;9.99;72.12;101374.38;1850766;76;21131;-43
2023/03/25 01:23:46;;;;;;;9.95;3.60;;;;;;;9.99;72.11;101373.06;1829730;77;21545;-42
2023/03/25 01:26:14;;;;;;;11.57;4.00;;;;;;;10.00;72.07;101375.27;1829616;78;21556;-43
2023/03/25 01:28:44;;;;;;;12.10;4.45;;;;;;;10.00;72.03;101380.06;1829663;77;21050;-43
2023/03/25 01:31:15;;;;;;;9.80;4.03;;;;;;;10.00;71.96;101384.47;1836896;77;21491;-43
2023/03/25 01:33:43;;;;;;;12.35;3.85;;;;;;;10.03;71.93;101384.37;1860563;77;21461;-43
2023/03/25 01:36:12;;;;;;;10.65;4.55;;;;;;;10.04;71.88;101388.74;1860304;77;21042;-46
2023/03/25 01:38:42;;;;;;;9.40;5.47;;;;;;;10.10;71.74;101389.03;1860305;77;21054;-44
2023/03/25 01:41:11;;;;;;;9.10;4.00;;;;;;;10.14;71.68;101390.67;1865916;77;21590;-43
2023/03/25 01:43:40;;;;;;;11.90;4.22;;;;;;;10.18;71.57;101381.78;1883707;75;21157;-42
2023/03/25 01:46:16;;;;;;;10.23;3.70;;;;;;;10.22;71.39;101391.34;1869906;77;21042;-44
2023/03/25 01:48:48;;;;;;;9.48;4.33;;;;;;;10.26;71.25;101393.44;1869870;77;21046;-42
2023/03/25 01:51:18;;;;;;;10.08;4.65;;;;;;;10.27;71.12;101393.37;1869529;77;21079;-41
2023/03/25 01:53:48;;;;;;;9.03;4.60;;;;;;;10.29;71.02;101391.59;1847510;77;21218;-41
2023/03/25 01:56:20;;;;;;;14.20;4.08;;;;;;;10.30;70.99;101389.34;1839016;78;21061;-42
2023/03/25 01:58:51;;;;;;;10.18;3.67;;;;;;;10.33;70.93;101389.31;1853687;77;21509;-42
2023/03/25 02:01:21;;;;;;;11.25;4.42;;;;;;;10.34;70.84;101390.16;1869752;77;21464;-44
2023/03/25 02:03:51;;;;;;;13.20;4.40;;;;;;;10.35;70.79;101394.53;1867517;77;21086;-45
2023/03/25 02:06:25;;;;;;;11.10;4.62;;;;;;;10.34;70.77;101391.02;1869950;77;21171;-44
2023/03/25 02:08:55;;;;;;;10.45;3.55;;;;;;;10.34;70.70;101389.70;1869394;77;21111;-44
2023/03/25 02:11:27;;;;;;;8.85;3.80;;;;;;;10.35;70.71;101387.49;1869944;77;21123;-44
2023/03/25 02:13:55;;;;;;;9.38;4.00;;;;;;;10.36;70.68;101387.89;1867574;77;21034;-44
2023/03/25 02:16:30;;;;;;;8.98;4.15;;;;;;;10.34;70.64;101385.75;1869985;77;21074;-45
2023/03/25 02:19:04;;;;;;;12.07;4.25;;;;;;;10.31;70.67;101392.44;1869058;77;21022;-46
2023/03/25 02:22:10;;;;;;;11.05;4.92;;;;;;;10.29;70.75;101388.95;1830871;77;21543;-44
2023/03/25 02:25:10;;;;;;;11.90;4.37;;;;;;;10.28;70.81;101388.53;1858253;77;21501;-45
2023/03/25 02:27:53;;;;;;;13.00;4.50;;;;;;;10.29;70.75;101394.22;1839177;77;21041;-44
2023/03/25 02:30:34;;;;;;;9.70;3.92;;;;;;;10.27;70.74;101394.69;1839306;77;21085;-45
2023/03/25 02:33:15;;;;;;;10.32;4.03;;;;;;;10.26;70.84;101404.82;1817848;76;21143;-46
2023/03/25 02:36:03;;;;;;;11.12;4.65;;;;;;;10.25;70.83;101401.77;1878599;75;21455;-44
2023/03/25 02:38:42;;;;;;;13.88;4.60;;;;;;;10.26;70.80;101409.23;1871322;75;21041;-44
2023/03/25 02:41:28;;;;;;;11.95;3.90;;;;;;;10.26;70.77;101403.50;1869937;76;21194;-44
2023/03/25 02:44:09;;;;;;;7.65;4.00;;;;;;;10.25;70.90;101410.97;1868070;77;21615;-43
2023/03/25 02:46:40;;;;;;;11.30;4.08;;;;;;;10.24;70.86;101405.31;1869328;77;21116;-44
2023/03/25 02:49:12;;;;;;;13.15;4.35;;;;;;;10.24;70.85;101407.95;1867333;77;21073;-43
2023/03/25 02:51:52;;;;;;;11.08;4.20;;;;;;;10.24;70.87;101407.48;1838940;78;21181;-44
2023/03/25 02:54:23;;;;;;;8.90;3.83;;;;;;;10.22;70.96;101407.13;1804003;76;21620;-44
2023/03/25 02:56:56;;;;;;;11.40;4.15;;;;;;;10.24;70.91;101410.58;1839010;78;21146;-43
2023/03/25 02:59:31;;;;;;;12.75;4.80;;;;;;;10.23;70.96;101407.06;1860529;77;21022;-43
2023/03/25 03:02:01;;;;;;;7.50;3.67;;;;;;;10.21;71.06;101404.93;1869540;77;21522;-44
2023/03/25 03:04:31;;;;;;;8.53;3.90;;;;;;;10.20;71.13;101415.53;1849038;77;21625;-42
2023/03/25 03:07:00;;;;;;;8.80;3.77;;;;;;;10.19;71.14;101415.09;1863317;77;21057;-41
2023/03/25 03:09:40;;;;;;;9.33;3.47;;;;;;;10.18;71.09;101414.24;1857044;77;21148;-44
2023/03/25 03:12:37;;;;;;;11.10;3.72;;;;;;;10.15;71.22;101411.69;1869573;77;21042;-44
2023/03/25 03:15:09;;;;;;;9.80;3.95;;;;;;;10.11;71.37;101415.31;1849512;77;21400;-44
2023/03/25 03:17:44;;;;;;;8.95;3.37;;;;;;;10.10;71.39;101412.71;1840983;77;21116;-42
2023/03/25 03:20:38;;;;;;;8.48;3.77;;;;;;;10.09;71.34;101409.23;1839136;78;21105;-43
2023/03/25 03:23:10;;;;;;;8.73;4.08;;;;;;;10.07;71.49;101408.41;1840296;77;21045;-43
2023/03/25 03:25:53;;;;;;;8.95;3.67;;;;;;;10.09;71.39;101412.28;1860644;77;21134;-43
2023/03/25 03:28:30;;;;;;;6.15;3.20;;;;;;;10.09;71.44;101414.92;1844574;77;21030;-43
2023/03/25 03:31:05;;;;;;;8.80;3.22;;;;;;;10.07;71.48;101410.15;1845269;77;21105;-40
2023/03/25 03:33:50;;;;;;;9.58;4.15;;;;;;;10.09;71.43;101410.97;1868877;76;21571;-40
2023/03/25 03:36:22;;;;;;;7.92;3.55;;;;;;;10.12;71.44;101405.64;1866076;77;21042;-40
2023/03/25 03:38:56;;;;;;;14.35;4.75;;;;;;;10.15;71.42;101413.46;1869757;77;21078;-40
2023/03/25 03:41:28;;;;;;;10.08;4.80;;;;;;;10.14;71.43;101420.47;1867791;76;21074;-40
2023/03/25 03:44:01;;;;;;;13.40;4.67;;;;;;;10.13;71.50;101422.70;1846798;77;21160;-38
2023/03/25 03:46:35;;;;;;;10.72;3.92;;;;;;;10.14;71.62;101425.73;1860809;77;21082;-37
2023/03/25 03:49:07;;;;;;;11.22;4.40;;;;;;;10.19;71.50;101429.58;1852973;76;21009;-40
2023/03/25 03:51:41;;;;;;;17.50;4.92;;;;;;;10.19;71.44;101428.26;1852300;76;21038;-40
2023/03/25 03:54:12;;;;;;;9.03;4.85;;;;;;;10.17;71.45;101431.39;1844622;77;21026;-40
2023/03/25 03:56:47;;;;;;;11.05;4.28;;;;;;;10.20;71.44;101432.63;1829439;78;21069;-40
2023/03/25 03:59:22;;;;;;;10.80;4.45;;;;;;;10.24;71.37;101434.27;1875024;76;21048;-42
2023/03/25 04:01:53;;;;;;;12.45;4.20;;;;;;;10.20;71.38;101432.63;1860495;77;21042;-40
2023/03/25 04:04:27;;;;;;;6.37;3.40;;;;;;;10.16;71.50;101430.95;1847628;77;21056;-38
2023/03/25 04:07:04;;;;;;;9.03;3.58;;;;;;;10.12;71.67;101429.31;1835286;77;21030;-37
2023/03/25 04:09:39;;;;;;;10.15;4.62;;;;;;;10.09;71.78;101426.76;1871541;76;21079;-41
2023/03/25 04:12:21;;;;;;;11.22;4.65;;;;;;;10.04;71.86;101433.02;1874767;75;21126;-39
2023/03/25 04:14:50;;;;;;;12.15;4.35;;;;;;;9.98;72.11;101434.49;1857035;76;21619;-39
2023/03/25 04:17:18;;;;;;;16.10;5.25;;;;;;;9.97;72.04;101439.33;1858536;77;21176;-39
2023/03/25 04:19:47;;;;;;;14.05;5.30;;;;;;;9.98;72.02;101445.48;1858766;77;21166;-38
2023/03/25 04:22:17;;;;;;;10.20;4.12;;;;;;;9.98;71.94;101435.81;1858904;77;21472;-38
2023/03/25 04:24:54;;;;;;;13.50;4.78;;;;;;;9.96;71.96;101437.62;1859086;77;21120;-39
2023/03/25 04:27:18;;;;;;;14.45;5.15;;;;;;;9.96;72.02;101449.88;1858776;77;21043;-38
2023/03/25 04:29:47;;;;;;;17.05;5.58;;;;;;;9.94;72.01;101453.90;1860622;77;21129;-39
2023/03/25 04:32:16;;;;;;;10.95;4.33;;;;;;;9.97;71.99;101451.63;1860548;77;21046;-38
2023/03/25 04:34:45;;;;;;;14.07;5.60;;;;;;;9.93;72.12;101456.09;1860405;77;21477;-40
2023/03/25 04:37:14;;;;;;;8.58;4.12;;;;;;;9.92;72.17;101456.98;1829553;78;21089;-38
2023/03/25 04:39:43;;;;;;;14.43;5.25;;;;;;;9.94;72.19;101459.59;1829795;78;21496;-38
2023/03/25 04:42:12;;;;;;;12.25;4.45;;;;;;;9.93;72.27;101462.67;1829820;78;21137;-37
2023/03/25 04:44:41;;;;;;;11.10;4.53;;;;;;;9.96;72.25;101459.09;1855962;77;21197;-38
2023/03/25 04:47:15;;;;;;;9.60;4.22;;;;;;;9.95;72.21;101463.50;1860011;77;21573;-38
2023/03/25 04:49:43;;;;;;;12.25;5.45;;;;;;;9.96;72.23;101461.30;1859848;77;21469;-38
2023/03/25 04:52:12;;;;;;;10.15;5.03;;;;;;;9.95;72.25;101458.23;1860010;77;21063;-38
2023/03/25 04:54:41;;;;;;;12.60;6.67;;;;;;;9.98;72.20;101454.22;1860876;76;21096;-38
2023/03/25 04:57:09;;;;;;;14.35;6.42;;;;;;;9.95;72.38;101452.97;1861621;76;21093;-38
2023/03/25 04:59:38;;;;;;;11.93;5.00;;;;;;;9.95;72.42;101452.97;1861762;77;21120;-38
2023/03/25 05:02:11;;;;;;;15.03;6.70;;;;;;;9.98;72.38;101450.73;1861876;77;21062;-37
2023/03/25 05:04:40;;;;;;;9.98;3.90;;;;;;;9.98;72.44;101452.05;1847705;77;21050;-38
2023/03/25 05:07:08;;;;;;;12.37;4.60;;;;;;;9.95;72.70;101450.80;1830887;78;21070;-38
2023/03/25 05:09:37;;;;;;;16.45;6.67;;;;;;;9.94;72.74;101453.90;1830597;78;21614;-38
2023/03/25 05:12:10;;;;;;;12.47;5.33;;;;;;;9.96;72.72;101449.88;1830704;78;21063;-38
2023/03/25 05:14:36;;;;;;;13.65;5.90;;;;;;;9.96;72.95;101444.63;1842484;76;21062;-38
2023/03/25 05:17:05;;;;;;;16.20;5.42;;;;;;;9.98;72.84;101444.16;1893726;76;21140;-38
2023/03/25 05:19:34;;;;;;;13.78;5.30;;;;;;;10.01;72.70;101446.27;1893516;76;21054;-38
2023/03/25 05:22:03;;;;;;;14.23;6.03;;;;;;;10.07;72.63;101449.62;1893189;76;21126;-38
2023/03/25 05:24:32;;;;;;;16.80;6.65;;;;;;;10.11;72.60;101448.66;1893458;76;21070;-40
2023/03/25 05:27:01;;;;;;;28.07;15.40;;;;;;;10.12;72.61;101445.11;1862017;76;21023;-37
2023/03/25 05:29:32;;;;;;;23.83;10.45;;;;;;;10.15;72.57;101445.04;1861698;77;21062;-38
2023/03/25 05:32:00;;;;;;;12.43;5.95;;;;;;;10.19;72.49;101446.68;1861678;76;21050;-38
2023/03/25 05:34:29;;;;;;;15.23;6.60;;;;;;;10.23;72.51;101447.00;1861628;76;21150;-38
2023/03/25 05:36:58;;;;;;;15.85;8.23;;;;;;;10.24;72.38;101450.06;1861877;76;21485;-38
2023/03/25 05:39:27;;;;;;;22.70;11.73;;;;;;;10.27;72.32;101444.70;1861768;77;21050;-37
2023/03/25 05:42:01;;;;;;;15.05;6.78;;;;;;;10.28;72.30;101453.48;1861834;76;21066;-38
2023/03/25 05:44:26;;;;;;;16.95;6.83;;;;;;;10.31;72.21;101456.93;1859853;76;21058;-38
2023/03/25 05:46:56;;;;;;;21.25;8.63;;;;;;;10.34;72.13;101458.60;1869810;77;21135;-38
2023/03/25 05:49:24;;;;;;;16.00;8.23;;;;;;;10.31;72.15;101455.61;1868823;77;21598;-38
2023/03/25 05:51:54;;;;;;;14.70;6.58;;;;;;;10.32;72.12;101454.69;1870002;77;21061;-38
2023/03/25 05:54:27;;;;;;;23.70;6.97;;;;;;;10.34;72.12;101460.78;1850130;77;21126;-38
2023/03/25 05:56:56;;;;;;;14.55;5.67;;;;;;;10.38;72.10;101459.81;1839342;78;21059;-38
2023/03/25 05:59:24;;;;;;;14.33;6.87;;;;;;;10.36;72.22;101456.33;1838954;78;21055;-38
2023/03/25 06:01:53;;;;;;;17.67;6.35;;;;;;;10.43;72.05;101455.27;1838944;78;21119;-38
2023/03/25 06:04:22;;;;;;;23.38;7.90;;;;;;;10.46;71.90;101454.34;1853503;75;21018;-38
2023/03/25 06:06:51;;;;;;;12.88;5.30;;;;;;;10.47;71.86;101452.09;1857949;76;21545;-38
2023/03/25 06:09:20;;;;;;;18.20;6.40;;;;;;;10.49;71.87;101449.42;1841014;77;21063;-37
2023/03/25 06:11:52;;;;;;;19.42;8.00;;;;;;;10.46;71.97;101457.40;1839015;78;21039;-37
2023/03/25 06:14:19;;;;;;;22.13;9.25;;;;;;;10.47;71.96;101453.87;1840836;77;21589;-38
2023/03/25 06:16:48;;;;;;;22.32;7.95;;;;;;;10.50;71.87;101457.29;1839015;78;21133;-37
2023/03/25 06:19:17;;;;;;;16.12;6.17;;;;;;;10.56;71.95;101454.94;1838942;78;21063;-37
2023/03/25 06:21:48;;;;;;;9.78;3.70;;;;;;;10.64;71.87;101454.26;1838976;78;21139;-37
2023/03/25 06:24:16;;;;;;;8.85;4.50;;;;;;;10.68;71.72;101460.30;1838865;78;21064;-40
2023/03/25 06:26:45;;;;;;;11.73;5.87;;;;;;;10.69;71.56;101458.09;1869592;77;21203;-37
2023/03/25 06:29:13;;;;;;;13.55;4.85;;;;;;;10.69;71.51;101458.95;1869984;77;21187;-37
2023/03/25 06:31:42;;;;;;;10.85;4.95;;;;;;;10.65;71.49;101458.64;1869990;77;21054;-37
2023/03/25 06:34:10;;;;;;;16.82;7.08;;;;;;;10.69;71.50;101461.59;1869960;77;21057;-37
2023/03/25 06:36:39;;;;;;;13.55;7.00;;;;;;;10.69;71.53;101461.59;1870042;75;21034;-37
2023/03/25 06:39:09;;;;;;;16.23;5.90;;;;;;;10.65;71.55;101457.31;1869836;77;21053;-38
2023/03/25 06:41:38;;;;;;;17.17;6.22;;;;;;;10.70;71.54;101463.33;1870055;77;21069;-37
2023/03/25 06:44:11;;;;;;;17.70;6.17;;;;;;;10.76;71.49;101463.14;1867819;77;21065;-37
2023/03/25 06:46:50;;;;;;;15.13;6.08;;;;;;;10.77;71.43;101462.25;1861698;77;21167;-37
2023/03/25 06:49:26;;;;;;;16.62;6.25;;;;;;;10.77;71.30;101456.98;1860943;77;21580;-38
2023/03/25 06:51:55;;;;;;;11.10;5.00;;;;;;;10.84;71.28;101455.02;1861753;77;21488;-37
2023/03/25 06:54:24;;;;;;;21.45;10.68;;;;;;;10.86;71.23;101456.30;1861823;77;21183;-37
2023/03/25 06:56:53;;;;;;;19.55;6.30;;;;;;;10.84;71.17;101451.06;1861102;76;21442;-37
2023/03/25 06:59:21;;;;;;;22.48;9.95;;;;;;;10.89;71.18;101453.58;1861821;77;21058;-37
2023/03/25 07:01:50;;;;;;;14.07;5.22;;;;;;;10.98;71.06;101450.68;1861802;77;21062;-37
2023/03/25 07:04:19;;;;;;;15.32;6.42;;;;;;;11.05;70.85;101449.59;1861768;77;21121;-37
2023/03/25 07:06:49;;;;;;;13.85;5.53;;;;;;;11.03;70.57;101447.47;1850816;77;21057;-37
2023/03/25 07:09:17;;;;;;;11.88;4.55;;;;;;;11.03;70.48;101451.41;1830869;78;21066;-38
2023/03/25 07:11:46;;;;;;;12.40;5.40;;;;;;;11.05;70.39;101446.96;1830805;78;21066;-38
2023/03/25 07:14:15;;;;;;;9.28;3.92;;;;;;;11.07;70.39;101445.14;1830800;78;21098;-38
2023/03/25 07:16:43;;;;;;;20.88;6.28;;;;;;;11.14;70.22;101440.09;1835825;77;21034;-38
2023/03/25 07:19:12;;;;;;;15.48;6.00;;;;;;;11.19;70.10;101442.14;1862007;77;21161;-38
2023/03/25 07:21:41;;;;;;;16.45;4.67;;;;;;;11.24;69.76;101433.22;1861779;77;21119;-38
2023/03/25 07:24:09;;;;;;;5.87;3.40;;;;;;;11.30;69.68;101439.61;1861796;77;21062;-36
2023/03/25 07:26:38;;;;;;;12.80;4.17;;;;;;;11.34;69.43;101435.53;1861815;77;21128;-36
2023/03/25 07:29:07;;;;;;;8.18;3.33;;;;;;;11.36;69.27;101430.19;1888143;76;21171;-37
2023/03/25 07:31:35;;;;;;;8.63;3.83;;;;;;;11.45;69.12;101429.89;1893675;76;21049;-36
2023/03/25 07:34:06;;;;;;;12.47;5.12;;;;;;;11.48;68.85;101432.45;1893596;76;21164;-37
2023/03/25 07:36:34;;;;;;;14.65;5.28;;;;;;;11.51;68.71;101432.36;1893273;75;21098;-36
2023/03/25 07:39:03;;;;;;;8.95;3.10;;;;;;;11.57;68.51;101426.87;1870198;76;21116;-36
2023/03/25 07:41:31;;;;;;;10.90;4.05;;;;;;;11.62;68.30;101424.11;1861780;77;21157;-37
2023/03/25 07:44:02;;;;;;;13.95;4.65;;;;;;;11.67;68.10;101423.94;1858946;77;21114;-36
2023/03/25 07:46:32;;;;;;;10.72;4.85;;;;;;;11.66;68.01;101422.23;1861762;75;21126;-36
2023/03/25 07:49:01;;;;;;;11.12;4.55;;;;;;;11.68;67.86;101421.26;1867309;76;21586;-36
2023/03/25 07:51:31;;;;;;;10.28;4.67;;;;;;;11.74;67.73;101420.19;1893619;76;21108;-36
2023/03/25 07:53:59;;;;;;;11.80;4.35;;;;;;;11.78;67.39;101421.81;1893351;76;21051;-37
2023/03/25 07:56:28;;;;;;;9.90;4.47;;;;;;;11.97;67.57;101421.64;1893544;76;21113;-36
2023/03/25 07:58:57;;;;;;;11.57;4.33;;;;;;;12.25;67.34;101409.27;1882285;76;21130;-36
2023/03/25 08:01:25;;;;;;;10.95;4.42;;;;;;;12.58;67.13;101412.48;1861715;77;21026;-36
2023/03/25 08:03:54;;;;;;;11.60;4.22;;;;;;;12.80;66.44;101405.94;1861805;77;21054;-36
2023/03/25 08:06:23;;;;;;;12.25;5.67;;;;;;;12.96;66.10;101399.59;1861556;77;21108;-36
2023/03/25 08:08:52;;;;;;;11.85;5.92;;;;;;;13.05;65.59;101395.27;1861791;77;21206;-36
2023/03/25 08:11:20;;;;;;;14.23;7.15;;;;;;;13.04;65.16;101393.56;1861794;77;21062;-36
2023/03/25 08:13:49;;;;;;;10.08;3.83;;;;;;;13.10;65.29;101397.27;1861776;77;21038;-36
2023/03/25 08:16:18;;;;;;;11.88;4.92;;;;;;;13.13;65.00;101397.60;1861612;77;21089;-36
2023/03/25 08:18:51;;;;;;;12.30;4.72;;;;;;;13.13;64.75;101396.28;1860482;77;21026;-36
2023/03/25 08:21:21;;;;;;;9.18;4.00;;;;;;;13.14;64.74;101394.91;1861384;76;21063;-39
2023/03/25 08:23:47;;;;;;;9.43;4.87;;;;;;;13.24;64.80;101396.75;1861494;76;21062;-39
2023/03/25 08:26:16;;;;;;;21.60;11.25;;;;;;;13.34;64.71;101389.80;1861794;77;21078;-39
2023/03/25 08:28:46;;;;;;;12.73;4.53;;;;;;;13.46;64.26;101386.64;1876450;76;21078;-36
2023/03/25 08:31:14;;;;;;;10.10;4.92;;;;;;;13.89;63.81;101383.07;1893591;76;21109;-37
2023/03/25 08:33:43;;;;;;;9.75;4.87;;;;;;;14.60;63.30;101374.67;1893298;76;21128;-38
2023/03/25 08:36:13;;;;;;;13.25;5.65;;;;;;;14.98;62.47;101376.50;1893610;76;21070;-37
2023/03/25 08:38:42;;;;;;;8.93;4.22;;;;;;;15.29;61.67;101375.88;1880376;76;21058;-37
2023/03/25 08:41:10;;;;;;;11.30;5.47;;;;;;;15.47;61.19;101378.56;1861880;76;21148;-36
2023/03/25 08:43:39;;;;;;;10.35;3.80;;;;;;;15.38;59.76;101371.45;1861794;77;21050;-37
2023/03/25 08:46:08;;;;;;;6.67;3.70;;;;;;;15.45;59.99;101365.36;1861680;77;21074;-38
2023/03/25 08:48:37;;;;;;;13.95;8.20;;;;;;;15.62;59.79;101365.39;1855764;77;21477;-37
2023/03/25 08:51:06;;;;;;;9.28;4.92;;;;;;;16.48;58.49;101363.22;1830786;78;21062;-37
2023/03/25 08:53:35;;;;;;;7.37;3.47;;;;;;;17.00;57.14;101355.05;1830874;78;21233;-37
2023/03/25 08:56:04;;;;;;;10.00;4.80;;;;;;;16.88;56.60;101353.95;1830766;78;21034;-37
2023/03/25 08:58:33;;;;;;;9.90;4.92;;;;;;;16.71;56.68;101348.66;1830797;78;21067;-40
2023/03/25 09:01:01;;;;;;;9.08;4.25;;;;;;;16.59;56.82;101346.20;1861740;76;21081;-37
2023/03/25 09:03:30;;;;;;;11.63;4.55;;;;;;;16.50;56.96;101349.37;1861863;77;21058;-37
2023/03/25 09:06:00;;;;;;;11.35;6.47;;;;;;;16.31;56.89;101353.02;1860995;77;21139;-39
2023/03/25 09:08:29;;;;;;;11.43;4.97;;;;;;;16.00;56.19;101351.11;1862170;76;21023;-37
2023/03/25 09:10:58;;;;;;;11.60;5.33;;;;;;;15.71;56.20;101344.61;1861743;77;21540;-37
2023/03/25 09:13:26;;;;;;;13.40;4.65;;;;;;;15.56;56.59;101342.27;1861691;77;21058;-38
2023/03/25 09:15:57;;;;;;;11.15;4.58;;;;;;;15.66;56.88;101337.34;1861934;77;21183;-37
2023/03/25 09:18:25;;;;;;;18.30;5.45;;;;;;;15.77;56.96;101329.27;1861166;77;21085;-37
2023/03/25 09:20:57;;;;;;;10.68;5.55;;;;;;;16.06;56.90;101329.53;1861971;77;21132;-37
2023/03/25 09:23:26;;;;;;;11.57;5.20;;;;;;;16.86;56.14;101319.92;1860612;77;21058;-37
2023/03/25 09:25:56;;;;;;;14.03;5.53;;;;;;;17.77;55.33;101323.98;1861793;77;21439;-37
2023/03/25 09:28:25;;;;;;;9.80;4.45;;;;;;;18.35;54.49;101320.05;1840872;77;21117;-37
2023/03/25 09:30:55;;;;;;;11.83;4.97;;;;;;;19.14;53.51;101314.10;1830838;78;21070;-37
2023/03/25 09:33:26;;;;;;;8.35;4.58;;;;;;;20.16;51.65;101313.91;1830897;78;21132;-37
2023/03/25 09:35:54;;;;;;;12.58;5.05;;;;;;;21.24;50.34;101294.09;1830863;78;21169;-37
2023/03/25 09:38:23;;;;;;;15.28;5.03;;;;;;;21.83;48.46;101291.36;1831283;77;21046;-38
2023/03/25 09:40:51;;;;;;;10.18;4.47;;;;;;;22.25;48.02;101290.30;1830833;78;21098;-38
2023/03/25 09:43:35;;;;;;;9.75;5.17;;;;;;;22.34;46.86;101294.95;1835759;77;21567;-38
2023/03/25 09:46:05;;;;;;;11.60;4.67;;;;;;;22.77;45.92;101289.27;1860076;77;21121;-37
2023/03/25 09:48:37;;;;;;;15.70;6.67;;;;;;;23.36;45.35;101292.02;1861064;76;21152;-37
2023/03/25 09:51:25;;;;;;;12.33;4.60;;;;;;;23.66;44.34;101294.41;1861825;77;21125;-38
2023/03/25 09:53:57;;;;;;;9.10;4.78;;;;;;;23.82;43.75;101286.77;1861927;76;21103;-38
2023/03/25 09:56:28;;;;;;;7.53;3.85;;;;;;;23.99;42.66;101278.56;1861776;76;21109;-38
2023/03/25 09:59:00;;;;;;;11.53;4.87;;;;;;;24.27;42.44;101270.28;1861919;76;21011;-40
2023/03/25 10:01:37;;;;;;;8.03;4.45;;;;;;;24.40;41.30;101267.35;1861867;77;21467;-38
2023/03/25 10:04:41;;;;;;;10.48;5.15;;;;;;;24.18;41.23;101258.99;1861965;77;21622;-38
2023/03/25 10:07:29;;;;;;;8.90;4.80;;;;;;;24.25;41.31;101250.73;1861676;77;21544;-38
2023/03/25 10:10:23;;;;;;;9.83;4.87;;;;;;;24.41;40.54;101243.97;1861739;76;21505;-38
2023/03/25 10:12:54;;;;;;;11.43;4.67;;;;;;;24.15;40.78;101248.49;1861896;77;21050;-37
2023/03/25 10:15:53;;;;;;;11.83;3.85;;;;;;;24.32;39.87;101238.06;1860587;76;21548;-38
2023/03/25 10:18:32;;;;;;;11.28;4.70;;;;;;;24.16;40.60;101237.23;1861931;77;21573;-37
2023/03/25 10:21:37;;;;;;;9.88;5.10;;;;;;;23.86;40.11;101235.77;1861321;76;21039;-37
2023/03/25 10:24:23;;;;;;;12.78;6.45;;;;;;;23.64;39.11;101225.99;1861421;76;21587;-39
2023/03/25 10:26:58;;;;;;;11.95;5.47;;;;;;;23.37;39.38;101225.69;1861832;77;21058;-38
2023/03/25 10:29:30;;;;;;;10.00;4.92;;;;;;;23.59;39.82;101212.59;1861276;76;21143;-39
2023/03/25 10:32:01;;;;;;;21.57;7.37;;;;;;;23.80;39.82;101201.35;1830783;78;21123;-38
2023/03/25 10:34:42;;;;;;;13.93;5.97;;;;;;;24.06;39.99;101205.77;1830563;78;21082;-38
2023/03/25 10:37:14;;;;;;;12.20;4.95;;;;;;;24.34;39.66;101208.67;1830543;78;21046;-37
2023/03/25 10:39:46;;;;;;;9.60;5.28;;;;;;;24.10;39.45;101206.34;1830796;78;21089;-38
2023/03/25 10:42:22;;;;;;;9.13;3.98;;;;;;;23.63;39.43;101210.02;1859783;76;21047;-38
2023/03/25 10:44:52;;;;;;;10.23;5.00;;;;;;;23.31;39.61;101200.20;1800482;77;21566;-39
2023/03/25 10:47:23;;;;;;;14.83;5.45;;;;;;;22.51;40.19;101197.48;1860007;77;21137;-39
2023/03/25 10:49:54;;;;;;;12.33;5.12;;;;;;;22.54;40.35;101197.24;1857623;77;21059;-39
2023/03/25 10:52:23;;;;;;;9.73;5.15;;;;;;;22.72;39.94;101197.06;1858381;77;21050;-39
2023/03/25 10:54:54;;;;;;;10.08;5.00;;;;;;;22.93;40.12;101197.08;1860638;77;21136;-38
2023/03/25 10:57:28;;;;;;;14.75;5.42;;;;;;;23.21;39.79;101187.21;1860449;75;21050;-39
2023/03/25 11:00:00;;;;;;;11.00;4.80;;;;;;;23.41;39.91;101180.97;1860608;77;21117;-38
2023/03/25 11:02:31;;;;;;;14.15;5.15;;;;;;;23.51;39.73;101186.39;1860883;76;21050;-38
2023/03/25 11:05:05;;;;;;;11.43;5.12;;;;;;;23.29;39.60;101176.17;1860756;77;21124;-38
2023/03/25 11:07:36;;;;;;;12.55;4.40;;;;;;;23.31;39.71;101171.98;1860613;77;21116;-38
2023/03/25 11:10:17;;;;;;;9.98;4.53;;;;;;;23.42;40.07;101171.91;1860433;77;21154;-38
2023/03/25 11:12:47;;;;;;;10.13;4.92;;;;;;;23.53;39.73;101167.45;1859865;77;21042;-39
2023/03/25 11:15:21;;;;;;;11.35;4.80;;;;;;;23.10;39.75;101167.48;1860581;77;21054;-39
2023/03/25 11:17:55;;;;;;;14.10;6.35;;;;;;;22.95;39.93;101162.05;1860769;77;21088;-39
2023/03/25 11:20:27;;;;;;;10.05;5.55;;;;;;;22.54;40.34;101159.67;1859345;77;21058;-37
2023/03/25 11:23:01;;;;;;;11.40;5.30;;;;;;;22.24;40.65;101158.48;1846438;77;21122;-38
2023/03/25 11:25:35;;;;;;;12.07;4.67;;;;;;;22.23;40.98;101162.66;1829188;78;21525;-37
2023/03/25 11:28:06;;;;;;;108.03;51.23;;;;;;;22.29;41.01;101149.61;1829344;78;21571;-38
2023/03/25 11:30:35;;;;;;;10.45;5.60;;;;;;;22.06;40.98;101151.94;1829313;77;21055;-38
2023/03/25 11:33:06;;;;;;;9.53;4.92;;;;;;;21.84;41.08;101144.30;1831332;77;21091;-38
2023/03/25 11:35:41;;;;;;;8.90;4.50;;;;;;;21.70;41.50;101140.53;1829347;78;21035;-38
2023/03/25 11:38:21;;;;;;;9.45;4.72;;;;;;;21.51;41.79;101133.11;1829502;78;21142;-37
2023/03/25 11:40:56;;;;;;;12.53;5.25;;;;;;;21.14;42.15;101134.12;1815736;78;21064;-38